Terminal Aerodrome Forecast
Issued by NWS

Home | Current Version | Previous Version | Text Only | Print | Product List | Glossary On
Versions: 1 2 3 4 5 6 7 8 9 10 11 12 13 14 15 16 17 18 19 20 21 22 23 24 25 26 27 28
000
FTUS41 KCTP 240222 AAA
TAFUNV
TAF AMD
KUNV 240222Z 2402/2424 15018G28KT P6SM -SHRA BKN035 WS020/15055KT
      TEMPO 2403/2405 20025G40KT 5SM +RA BR OVC010
     FM240700 22012G20KT 5SM -SHRA OVC015
     FM241100 24012KT P6SM VCSH OVC025
     FM241400 21010KT P6SM BKN050=

USA.gov is the U.S. government's official web portal to all federal, state and local government web resources and services.